createdAt,value
2023-03-06T00:00:18.403Z,6.88
2023-03-06T00:02:46.724Z,6.47
2023-03-06T00:05:15.345Z,8.57
2023-03-06T00:07:44.079Z,6.40
2023-03-06T00:10:16.468Z,3.90
2023-03-06T00:12:44.420Z,5.07
2023-03-06T00:15:13.497Z,6.90
2023-03-06T00:17:41.840Z,4.90
2023-03-06T00:20:11.792Z,2.88
2023-03-06T00:22:40.356Z,7.22
2023-03-06T00:25:09.558Z,5.72
2023-03-06T00:27:38.756Z,4.28
2023-03-06T00:30:08.239Z,5.22
2023-03-06T00:32:36.092Z,5.38
2023-03-06T00:35:04.233Z,6.75
2023-03-06T00:37:32.228Z,6.72
2023-03-06T00:40:00.386Z,5.53
2023-03-06T00:42:28.344Z,7.40
2023-03-06T00:44:57.578Z,5.90
2023-03-06T00:47:25.480Z,7.65
2023-03-06T00:49:53.350Z,8.70
2023-03-06T00:52:21.278Z,8.93
2023-03-06T00:54:49.166Z,6.75
2023-03-06T00:57:17.045Z,5.30
2023-03-06T00:59:46.022Z,5.85
2023-03-06T01:02:15.743Z,8.43
2023-03-06T01:04:43.854Z,8.15
2023-03-06T01:07:12.477Z,12.38
2023-03-06T01:09:40.403Z,8.68
2023-03-06T01:12:09.087Z,8.00
2023-03-06T01:14:37.174Z,10.15
2023-03-06T01:17:05.161Z,9.13
2023-03-06T01:19:34.439Z,6.80
2023-03-06T01:22:02.363Z,7.07
2023-03-06T01:24:30.301Z,8.07
2023-03-06T01:26:58.268Z,8.57
2023-03-06T01:29:26.488Z,8.30
2023-03-06T01:31:54.642Z,10.27
2023-03-06T01:34:22.571Z,7.15
2023-03-06T01:36:51.844Z,7.53
2023-03-06T01:39:19.834Z,10.98
2023-03-06T01:41:47.811Z,7.35
2023-03-06T01:44:15.685Z,8.18
2023-03-06T01:46:43.994Z,8.15
2023-03-06T01:49:19.678Z,7.82
2023-03-06T01:51:53.631Z,8.35
2023-03-06T01:54:24.883Z,10.35
2023-03-06T01:56:57.814Z,8.57
2023-03-06T01:59:27.608Z,12.13
2023-03-06T02:01:57.122Z,9.90
2023-03-06T02:04:25.719Z,9.90
2023-03-06T02:06:56.535Z,10.50
2023-03-06T02:09:24.465Z,13.55
2023-03-06T02:11:55.200Z,10.65
2023-03-06T02:14:23.466Z,9.05
2023-03-06T02:16:52.445Z,12.57
2023-03-06T02:19:34.283Z,9.73
2023-03-06T02:22:04.364Z,10.57
2023-03-06T02:24:40.980Z,13.60
2023-03-06T02:27:14.309Z,10.23
2023-03-06T02:29:43.419Z,11.27
2023-03-06T02:32:11.394Z,9.20
2023-03-06T02:34:52.662Z,11.23
2023-03-06T02:37:21.825Z,11.27
2023-03-06T02:39:53.966Z,9.30
2023-03-06T02:42:28.852Z,11.18
2023-03-06T02:45:00.123Z,10.45
2023-03-06T02:47:28.044Z,8.00
2023-03-06T02:49:55.991Z,8.57
2023-03-06T02:52:24.003Z,10.93
2023-03-06T02:54:51.899Z,12.57
2023-03-06T02:57:19.755Z,8.02
2023-03-06T02:59:49.114Z,10.43
2023-03-06T03:02:17.366Z,11.15
2023-03-06T03:04:45.703Z,10.30
2023-03-06T03:07:13.654Z,16.77
2023-03-06T03:09:42.058Z,9.40
2023-03-06T03:12:10.840Z,10.82
2023-03-06T03:14:39.649Z,8.05
2023-03-06T03:17:09.033Z,9.20
2023-03-06T03:19:36.910Z,10.27
2023-03-06T03:22:04.957Z,6.93
2023-03-06T03:24:32.962Z,9.98
2023-03-06T03:27:01.984Z,8.77
2023-03-06T03:29:30.121Z,6.20
2023-03-06T03:31:58.147Z,8.55
2023-03-06T03:34:29.389Z,7.85
2023-03-06T03:36:58.751Z,8.73
2023-03-06T03:39:26.776Z,8.02
2023-03-06T03:41:54.736Z,6.10
2023-03-06T03:44:23.709Z,8.05
2023-03-06T03:46:51.958Z,5.18
2023-03-06T03:49:23.092Z,6.57
2023-03-06T03:51:53.120Z,8.30
2023-03-06T03:54:22.396Z,6.50
2023-03-06T03:56:51.803Z,7.10
2023-03-06T03:59:25.455Z,7.30
2023-03-06T04:02:25.683Z,5.07
2023-03-06T04:05:05.403Z,6.10
2023-03-06T04:07:34.989Z,7.05
2023-03-06T04:10:03.112Z,7.28
2023-03-06T04:12:32.029Z,5.93
2023-03-06T04:15:00.240Z,9.23
2023-03-06T04:17:29.209Z,6.75
2023-03-06T04:19:57.729Z,8.20
2023-03-06T04:22:25.700Z,7.10
2023-03-06T04:24:55.215Z,6.53
2023-03-06T04:27:23.455Z,4.57
2023-03-06T04:29:51.611Z,5.63
2023-03-06T04:32:21.426Z,5.82
2023-03-06T04:34:49.833Z,4.32
2023-03-06T04:37:21.432Z,4.72
2023-03-06T04:39:50.186Z,6.22
2023-03-06T04:42:19.780Z,3.72
2023-03-06T04:44:47.824Z,4.57
2023-03-06T04:47:16.988Z,6.63
2023-03-06T04:49:46.636Z,4.63
2023-03-06T04:52:14.592Z,4.63
2023-03-06T04:54:42.874Z,5.43
2023-03-06T04:57:12.876Z,6.50
2023-03-06T04:59:42.295Z,3.95
2023-03-06T05:02:10.242Z,5.30
2023-03-06T05:04:38.169Z,3.70
2023-03-06T05:07:06.152Z,7.53
2023-03-06T05:09:35.855Z,3.83
2023-03-06T05:12:04.619Z,3.88
2023-03-06T05:14:32.556Z,4.65
2023-03-06T05:17:02.139Z,5.25
2023-03-06T05:19:30.025Z,4.18
2023-03-06T05:21:57.966Z,3.50
2023-03-06T05:24:25.799Z,3.03
2023-03-06T05:26:53.742Z,3.70
2023-03-06T05:29:21.835Z,3.55
2023-03-06T05:31:49.846Z,9.68
2023-03-06T05:34:19.130Z,4.18
2023-03-06T05:36:47.371Z,7.22
2023-03-06T05:39:15.310Z,5.03
2023-03-06T05:41:43.181Z,4.63
2023-03-06T05:44:11.050Z,5.40
2023-03-06T05:46:38.989Z,6.03
2023-03-06T05:49:06.813Z,6.53
2023-03-06T05:51:36.202Z,4.85
2023-03-06T05:54:04.064Z,3.95
2023-03-06T05:56:31.963Z,5.40
2023-03-06T05:58:59.820Z,5.68
2023-03-06T06:01:28.504Z,7.40
2023-03-06T06:03:56.373Z,7.18
2023-03-06T06:06:24.281Z,6.82
2023-03-06T06:08:53.838Z,7.25
2023-03-06T06:11:21.854Z,6.93
2023-03-06T06:13:50.123Z,7.63
2023-03-06T06:16:19.139Z,7.50
2023-03-06T06:18:47.535Z,6.47
2023-03-06T06:21:15.962Z,5.75
2023-03-06T06:23:44.328Z,6.45
2023-03-06T06:26:13.571Z,5.95
2023-03-06T06:28:41.469Z,4.95
2023-03-06T06:31:10.571Z,4.78
2023-03-06T06:33:38.557Z,9.13
2023-03-06T06:36:06.899Z,5.03
2023-03-06T06:38:35.178Z,5.55
2023-03-06T06:41:33.496Z,5.07
2023-03-06T06:43:55.481Z,6.63
2023-03-06T06:46:59.257Z,6.40
2023-03-06T06:49:12.652Z,5.82
2023-03-06T06:51:41.570Z,12.48
2023-03-06T06:54:09.725Z,5.20
2023-03-06T06:56:37.569Z,7.22
2023-03-06T06:59:16.182Z,5.70
2023-03-06T07:01:45.264Z,3.67
2023-03-06T07:04:13.761Z,7.50
2023-03-06T07:06:41.955Z,5.97
2023-03-06T07:09:09.852Z,7.63
2023-03-06T07:11:38.528Z,6.85
2023-03-06T07:14:07.754Z,5.43
2023-03-06T07:16:35.717Z,5.45
2023-03-06T07:19:03.688Z,5.22
2023-03-06T07:21:31.594Z,6.07
2023-03-06T07:23:59.748Z,6.55
2023-03-06T07:26:28.915Z,5.90
2023-03-06T07:28:56.772Z,10.50
2023-03-06T07:31:28.534Z,3.38
2023-03-06T07:33:56.693Z,4.35
2023-03-06T07:36:24.988Z,4.20
2023-03-06T07:38:52.887Z,4.20
2023-03-06T07:41:22.655Z,5.63
2023-03-06T07:43:51.100Z,4.38
2023-03-06T07:46:19.437Z,3.22
2023-03-06T07:48:48.753Z,5.68
2023-03-06T07:51:19.101Z,5.45
2023-03-06T07:53:47.795Z,7.30
2023-03-06T07:56:15.973Z,5.28
2023-03-06T07:58:45.812Z,8.00
2023-03-06T08:01:15.602Z,6.25
2023-03-06T08:03:43.671Z,6.43
2023-03-06T08:06:15.073Z,9.50
2023-03-06T08:08:45.609Z,8.77
2023-03-06T08:11:15.246Z,8.55
2023-03-06T08:13:43.785Z,10.13
2023-03-06T08:16:12.227Z,8.30
2023-03-06T08:18:40.667Z,5.95
2023-03-06T08:21:11.231Z,6.63
2023-03-06T08:23:41.292Z,4.97
2023-03-06T08:26:13.291Z,5.45
2023-03-06T08:28:41.678Z,5.75
2023-03-06T08:31:11.048Z,5.30
2023-03-06T08:33:39.766Z,6.50
2023-03-06T08:36:08.150Z,6.60
2023-03-06T08:38:36.088Z,3.47
2023-03-06T08:41:05.697Z,11.95
2023-03-06T08:43:34.842Z,7.80
2023-03-06T08:46:03.373Z,4.07
2023-03-06T08:48:31.484Z,8.98
2023-03-06T08:50:59.417Z,5.38
2023-03-06T08:53:41.672Z,4.05
2023-03-06T08:58:45.606Z,5.97
2023-03-06T09:01:17.666Z,12.02
2023-03-06T09:03:45.749Z,5.53
2023-03-06T09:06:14.875Z,4.60
2023-03-06T09:08:44.485Z,7.78
2023-03-06T09:11:14.463Z,8.20
2023-03-06T09:13:44.828Z,3.80
2023-03-06T09:16:13.635Z,6.80
2023-03-06T09:18:41.694Z,5.53
2023-03-06T09:21:11.001Z,4.38
2023-03-06T09:23:40.048Z,4.25
2023-03-06T09:26:08.592Z,7.45
2023-03-06T09:28:38.919Z,3.50
2023-03-06T09:31:11.041Z,8.20
2023-03-06T09:33:39.251Z,2.45
2023-03-06T09:36:08.339Z,7.43
2023-03-06T09:38:36.208Z,2.67
2023-03-06T09:41:10.056Z,6.35
2023-03-06T09:43:40.338Z,3.65
2023-03-06T09:46:18.073Z,5.32
2023-03-06T09:48:56.725Z,8.65
2023-03-06T09:51:31.528Z,5.10
2023-03-06T09:54:06.795Z,6.03
2023-03-06T09:56:36.802Z,2.40
2023-03-06T09:59:13.102Z,4.80
2023-03-06T10:01:46.047Z,1.92
2023-03-06T10:04:32.547Z,4.70
2023-03-06T10:07:04.841Z,3.22
2023-03-06T10:09:41.259Z,3.03
2023-03-06T10:12:24.313Z,11.05
2023-03-06T10:15:03.601Z,8.52
2023-03-06T10:17:37.681Z,6.05
2023-03-06T10:20:17.215Z,5.47
2023-03-06T10:23:00.831Z,7.97
2023-03-06T10:25:37.964Z,3.92
2023-03-06T10:28:15.746Z,6.10
2023-03-06T10:30:50.487Z,2.60
2023-03-06T10:33:24.431Z,8.57
2023-03-06T10:35:54.842Z,6.95
2023-03-06T10:38:25.273Z,4.13
2023-03-06T10:41:06.508Z,12.18
2023-03-06T10:43:36.394Z,1.77
2023-03-06T10:46:06.401Z,2.13
2023-03-06T10:48:38.798Z,2.28
2023-03-06T10:51:19.083Z,2.47
2023-03-06T10:53:53.758Z,3.65
2023-03-06T10:56:30.636Z,4.57
2023-03-06T10:59:10.096Z,3.15
2023-03-06T11:01:38.666Z,5.22
2023-03-06T11:04:23.901Z,3.72
2023-03-06T11:07:13.717Z,4.13
2023-03-06T11:09:41.989Z,1.73
2023-03-06T11:12:26.608Z,2.58
2023-03-06T11:15:18.363Z,2.20
2023-03-06T11:18:08.595Z,2.20
2023-03-06T11:20:53.032Z,1.85
2023-03-06T11:23:27.775Z,4.90
2023-03-06T11:25:58.322Z,5.60
2023-03-06T11:28:29.879Z,2.35
2023-03-06T11:31:04.001Z,3.80
2023-03-06T11:33:38.313Z,4.13
2023-03-06T11:36:14.521Z,1.48
2023-03-06T11:38:49.959Z,2.92
2023-03-06T11:41:26.114Z,2.97
2023-03-06T11:44:00.705Z,2.70
2023-03-06T11:46:32.951Z,2.83
2023-03-06T11:49:14.845Z,2.72
2023-03-06T11:51:50.281Z,6.00
2023-03-06T11:54:18.431Z,5.03
2023-03-06T11:56:55.462Z,9.63
2023-03-06T11:59:57.179Z,8.15
2023-03-06T12:02:40.375Z,8.00
2023-03-06T12:05:24.279Z,8.10
2023-03-06T12:08:02.683Z,4.80
2023-03-06T12:10:35.104Z,1.95
2023-03-06T12:13:20.555Z,3.20
2023-03-06T12:16:10.189Z,6.57
2023-03-06T12:18:46.845Z,4.90
2023-03-06T12:21:25.193Z,4.50
2023-03-06T12:24:17.552Z,5.63
2023-03-06T12:27:06.482Z,6.25
2023-03-06T12:30:00.907Z,4.35
2023-03-06T12:32:40.861Z,4.22
2023-03-06T12:35:29.802Z,3.63
2023-03-06T12:38:07.709Z,4.85
2023-03-06T12:40:54.750Z,7.72
2023-03-06T12:43:48.545Z,7.22
2023-03-06T12:48:49.497Z,6.30
2023-03-06T12:51:20.933Z,9.90
2023-03-06T12:53:51.226Z,5.65
2023-03-06T12:56:21.842Z,8.73
2023-03-06T12:58:52.034Z,4.30
2023-03-06T13:01:39.702Z,4.18
2023-03-06T13:04:30.094Z,6.78
2023-03-06T13:07:16.928Z,3.50
2023-03-06T13:10:01.591Z,5.85
2023-03-06T13:12:50.684Z,5.38
2023-03-06T13:15:38.193Z,5.70
2023-03-06T13:18:43.757Z,5.53
2023-03-06T13:21:47.377Z,7.63
2023-03-06T13:24:18.567Z,3.38
2023-03-06T13:26:58.603Z,9.40
2023-03-06T13:30:01.959Z,4.63
2023-03-06T13:32:33.912Z,6.07
2023-03-06T13:35:02.201Z,3.45
2023-03-06T13:38:00.856Z,5.13
2023-03-06T13:40:34.232Z,3.05
2023-03-06T13:43:19.775Z,3.05
2023-03-06T13:45:49.148Z,2.78
2023-03-06T13:48:44.790Z,4.07
2023-03-06T13:51:24.984Z,3.78
2023-03-06T13:54:21.590Z,3.10
2023-03-06T13:57:15.543Z,4.20
2023-03-06T14:00:21.968Z,8.10
2023-03-06T14:03:28.309Z,4.95
2023-03-06T14:05:58.918Z,3.80
2023-03-06T14:08:29.769Z,4.28
2023-03-06T14:11:02.762Z,6.05
2023-03-06T14:13:46.699Z,3.90
2023-03-06T14:16:20.430Z,2.42
2023-03-06T14:18:50.524Z,2.35
2023-03-06T14:21:30.758Z,7.53
2023-03-06T14:24:00.677Z,5.47
2023-03-06T14:26:32.844Z,4.95
2023-03-06T14:29:02.444Z,5.15
2023-03-06T14:31:33.914Z,3.00
2023-03-06T14:34:04.888Z,3.47
2023-03-06T14:36:36.925Z,4.65
2023-03-06T14:39:09.831Z,1.85
2023-03-06T14:41:38.125Z,3.90
2023-03-06T14:44:10.509Z,8.90
2023-03-06T14:46:39.049Z,4.03
2023-03-06T14:49:08.251Z,3.35
2023-03-06T14:51:42.773Z,4.72
2023-03-06T14:54:17.118Z,5.13
2023-03-06T14:56:47.292Z,4.63
2023-03-06T14:59:19.444Z,2.92
2023-03-06T15:01:51.168Z,4.43
2023-03-06T15:04:27.218Z,1.42
2023-03-06T15:06:58.198Z,7.85
2023-03-06T15:09:29.780Z,5.18
2023-03-06T15:12:01.252Z,3.70
2023-03-06T15:14:35.455Z,3.90
2023-03-06T15:17:23.618Z,1.83
2023-03-06T15:19:54.627Z,4.53
2023-03-06T15:22:37.728Z,6.35
2023-03-06T15:25:20.869Z,6.15
2023-03-06T15:27:50.840Z,5.15
2023-03-06T15:30:28.706Z,1.50
2023-03-06T15:33:24.110Z,3.75
2023-03-06T15:35:57.293Z,2.10
2023-03-06T15:38:33.793Z,3.60
2023-03-06T15:41:03.415Z,3.47
2023-03-06T15:43:35.436Z,4.90
2023-03-06T15:46:05.443Z,2.63
2023-03-06T15:48:33.924Z,3.35
2023-03-06T15:51:02.640Z,6.38
2023-03-06T15:53:32.119Z,2.45
2023-03-06T15:56:00.461Z,4.80
2023-03-06T15:58:35.327Z,3.85
2023-03-06T16:01:03.739Z,3.30
2023-03-06T16:03:32.372Z,4.47
2023-03-06T16:06:00.488Z,2.47
2023-03-06T16:08:28.885Z,6.22
2023-03-06T16:10:59.108Z,4.43
2023-03-06T16:13:28.936Z,3.50
2023-03-06T16:15:57.384Z,2.75
2023-03-06T16:18:25.781Z,2.03
2023-03-06T16:20:53.706Z,5.68
2023-03-06T16:23:21.562Z,6.80
2023-03-06T16:25:50.697Z,5.45
2023-03-06T16:28:20.439Z,3.20
2023-03-06T16:30:48.338Z,1.67
2023-03-06T16:33:16.367Z,3.15
2023-03-06T16:35:46.590Z,2.80
2023-03-06T16:38:15.718Z,3.45
2023-03-06T16:40:43.992Z,5.15
2023-03-06T16:43:13.558Z,3.08
2023-03-06T16:45:43.785Z,4.85
2023-03-06T16:48:15.973Z,1.65
2023-03-06T16:50:44.157Z,4.78
2023-03-06T16:53:12.034Z,2.75
2023-03-06T16:55:39.925Z,6.78
2023-03-06T16:58:08.650Z,4.28
2023-03-06T17:00:36.534Z,2.42
2023-03-06T17:03:05.884Z,5.45
2023-03-06T17:05:34.371Z,3.25
2023-03-06T17:08:02.338Z,3.65
2023-03-06T17:10:30.198Z,5.57
2023-03-06T17:12:58.405Z,5.90
2023-03-06T17:15:26.446Z,2.90
2023-03-06T17:17:54.381Z,9.05
2023-03-06T17:20:23.891Z,3.95
2023-03-06T17:22:51.903Z,5.32
2023-03-06T17:25:19.937Z,4.15
2023-03-06T17:27:47.807Z,1.80
2023-03-06T17:30:16.414Z,3.72
2023-03-06T17:32:44.365Z,6.70
2023-03-06T17:35:12.236Z,3.80
2023-03-06T17:37:41.452Z,6.47
2023-03-06T17:40:11.989Z,3.28
2023-03-06T17:42:39.902Z,6.13
2023-03-06T17:45:11.124Z,8.60
2023-03-06T17:47:39.039Z,1.52
2023-03-06T17:50:07.277Z,6.22
2023-03-06T17:52:35.344Z,10.65
2023-03-06T17:55:04.909Z,3.45
2023-03-06T17:57:33.470Z,5.32
2023-03-06T18:00:01.441Z,3.47
2023-03-06T18:02:29.344Z,2.03
2023-03-06T18:04:58.186Z,8.40
2023-03-06T18:07:26.603Z,7.50
2023-03-06T18:09:54.501Z,7.38
2023-03-06T18:12:23.805Z,8.13
2023-03-06T18:14:51.810Z,6.43
2023-03-06T18:17:19.743Z,9.15
2023-03-06T18:19:47.822Z,12.40
2023-03-06T18:22:15.848Z,8.02
2023-03-06T18:24:43.763Z,9.63
2023-03-06T18:27:11.661Z,8.80
2023-03-06T18:29:40.957Z,7.70
2023-03-06T18:32:10.691Z,5.05
2023-03-06T18:34:38.934Z,9.10
2023-03-06T18:37:06.983Z,10.93
2023-03-06T18:39:34.931Z,9.07
2023-03-06T18:42:03.157Z,19.92
2023-03-06T18:44:31.057Z,15.88
2023-03-06T18:47:00.277Z,12.23
2023-03-06T18:49:28.273Z,18.75
2023-03-06T18:51:56.150Z,12.20
2023-03-06T18:54:25.303Z,10.13
2023-03-06T18:56:53.470Z,15.57
2023-03-06T18:59:21.403Z,11.32
2023-03-06T19:01:49.876Z,15.68
2023-03-06T19:04:19.183Z,10.35
2023-03-06T19:06:47.649Z,11.35
2023-03-06T19:09:15.569Z,15.07
2023-03-06T19:11:45.585Z,13.35
2023-03-06T19:14:13.598Z,15.02
2023-03-06T19:16:41.756Z,15.75
2023-03-06T19:19:09.623Z,13.48
2023-03-06T19:21:38.859Z,12.70
2023-03-06T19:24:13.235Z,12.77
2023-03-06T19:26:41.987Z,12.18
2023-03-06T19:29:10.108Z,16.05
2023-03-06T19:31:38.028Z,10.02
2023-03-06T19:34:05.919Z,12.00
2023-03-06T19:36:34.299Z,11.85
2023-03-06T19:39:06.347Z,10.60
2023-03-06T19:41:34.824Z,12.63
2023-03-06T19:44:04.976Z,11.77
2023-03-06T19:46:33.482Z,10.75
2023-03-06T19:49:02.959Z,16.00
2023-03-06T19:51:31.119Z,13.38
2023-03-06T19:53:59.209Z,11.88
2023-03-06T19:56:31.863Z,10.98
2023-03-06T19:58:59.758Z,11.93
2023-03-06T20:01:29.112Z,12.40
2023-03-06T20:03:59.166Z,12.32
2023-03-06T20:06:29.201Z,12.80
2023-03-06T20:08:57.988Z,11.90
2023-03-06T20:11:29.838Z,10.35
2023-03-06T20:13:58.462Z,13.30
2023-03-06T20:16:27.903Z,10.85
2023-03-06T20:18:58.042Z,13.00
2023-03-06T20:21:26.613Z,14.38
2023-03-06T20:23:56.923Z,14.00
2023-03-06T20:26:25.805Z,11.73
2023-03-06T20:28:55.401Z,10.38
2023-03-06T20:31:25.810Z,10.52
2023-03-06T20:33:55.651Z,11.88
2023-03-06T20:36:27.191Z,9.55
2023-03-06T20:38:55.390Z,10.95
2023-03-06T20:41:25.257Z,14.60
2023-03-06T20:43:53.702Z,13.88
2023-03-06T20:46:24.217Z,13.52
2023-03-06T20:48:54.102Z,15.70
2023-03-06T20:51:24.160Z,14.75
2023-03-06T20:53:54.090Z,14.20
2023-03-06T20:56:25.464Z,11.68
2023-03-06T20:58:53.921Z,14.02
2023-03-06T21:01:25.086Z,14.40
2023-03-06T21:03:53.202Z,13.27
2023-03-06T21:06:21.954Z,13.73
2023-03-06T21:08:50.208Z,14.70
2023-03-06T21:11:19.135Z,15.70
2023-03-06T21:13:47.272Z,14.45
2023-03-06T21:16:17.241Z,9.80
2023-03-06T21:18:47.139Z,13.00
2023-03-06T21:21:18.347Z,12.52
2023-03-06T21:23:46.803Z,11.63
2023-03-06T21:26:16.493Z,13.88
2023-03-06T21:28:44.905Z,16.10
2023-03-06T21:31:15.547Z,11.65
2023-03-06T21:33:44.275Z,11.63
2023-03-06T21:36:13.766Z,10.25
2023-03-06T21:38:41.647Z,12.35
2023-03-06T21:41:11.390Z,12.70
2023-03-06T21:43:39.973Z,13.25
2023-03-06T21:46:08.263Z,13.13
2023-03-06T21:48:36.861Z,11.75
2023-03-06T21:51:09.577Z,8.30
2023-03-06T21:53:40.977Z,10.50
2023-03-06T21:56:09.309Z,16.42
2023-03-06T21:58:37.195Z,10.68
2023-03-06T22:01:10.795Z,12.18
2023-03-06T22:03:39.231Z,8.95
2023-03-06T22:06:11.381Z,14.27
2023-03-06T22:08:41.022Z,11.70
2023-03-06T22:11:10.790Z,10.48
2023-03-06T22:13:39.261Z,12.13
2023-03-06T22:16:08.202Z,8.85
2023-03-06T22:18:37.172Z,12.73
2023-03-06T22:21:08.897Z,13.43
2023-03-06T22:23:37.245Z,10.98
2023-03-06T22:26:08.136Z,10.40
2023-03-06T22:28:36.436Z,12.43
2023-03-06T22:31:06.115Z,10.50
2023-03-06T22:33:34.060Z,11.40
2023-03-06T22:36:06.104Z,10.95
2023-03-06T22:38:34.774Z,11.20
2023-03-06T22:41:02.876Z,10.57
2023-03-06T22:43:32.852Z,11.73
2023-03-06T22:46:02.238Z,10.68
2023-03-06T22:48:30.303Z,9.20
2023-03-06T22:51:02.969Z,11.40
2023-03-06T22:53:30.932Z,11.82
2023-03-06T22:56:00.145Z,17.60
2023-03-06T22:58:34.196Z,11.23
2023-03-06T23:01:07.586Z,12.90
2023-03-06T23:03:37.019Z,8.82
2023-03-06T23:06:08.029Z,10.25
2023-03-06T23:08:36.092Z,11.98
2023-03-06T23:11:07.887Z,9.07
2023-03-06T23:13:54.688Z,10.25
2023-03-06T23:16:42.753Z,11.40
2023-03-06T23:19:29.244Z,11.18
2023-03-06T23:22:15.482Z,12.82
2023-03-06T23:25:01.731Z,9.23
2023-03-06T23:27:29.618Z,10.57
2023-03-06T23:29:58.941Z,14.65
2023-03-06T23:32:28.497Z,12.43
2023-03-06T23:34:56.633Z,17.83
2023-03-06T23:37:24.776Z,10.73
2023-03-06T23:39:52.851Z,17.48
2023-03-06T23:42:20.956Z,14.07
2023-03-06T23:44:49.148Z,12.73
2023-03-06T23:47:19.984Z,11.55
2023-03-06T23:49:49.260Z,18.33
2023-03-06T23:52:17.226Z,14.65
2023-03-06T23:54:45.100Z,14.43
2023-03-06T23:57:12.940Z,13.75
2023-03-06T23:59:40.848Z,17.25
